ARG1789 SARI-SABE
Flight info
| Callsign | ARG1789 |
|---|---|
| Flight time | 1h 37m |
| Altitude | 36000 |
| Route | NAIDE2C NAIDE UT667 GEMSU UN785 GUA UZ129 PAGON PAGON8Q |
| Aircraft | B738/M-SDE2E3FGHIRWXY/LB1 |
Departure
| Time | 2026-05-04 23:13 |
|---|---|
| Airport | Cataratas Del Iguazú International Airport (SARI) |
Arrival
| Time | 2026-05-05 00:50 |
|---|---|
| Airport | Aeroparque Jorge Newbery (SABE) |
| Time | Latitude | Longitude | Altitude | Speed | Heading |
|---|---|---|---|---|---|
| 2026-05-04 22:54 | -25.73211 | -54.47709 | 926 ft | 0 kts | 26° |
| 2026-05-04 23:05 | -25.73212 | -54.47709 | 929 ft | 2 kts | 26° |
| 2026-05-04 23:05 | -25.73225 | -54.47718 | 929 ft | 4 kts | 25° |
| 2026-05-04 23:06 | -25.73249 | -54.47722 | 928 ft | 4 kts | 334° |
| 2026-05-04 23:06 | -25.73267 | -54.47704 | 927 ft | 3 kts | 297° |
| 2026-05-04 23:06 | -25.73271 | -54.47697 | 928 ft | 0 kts | 296° |
| 2026-05-04 23:08 | -25.73262 | -54.47717 | 927 ft | 8 kts | 295° |
| 2026-05-04 23:08 | -25.73229 | -54.47792 | 927 ft | 12 kts | 295° |
| 2026-05-04 23:09 | -25.73223 | -54.47882 | 926 ft | 12 kts | 265° |
| 2026-05-04 23:09 | -25.73231 | -54.47983 | 926 ft | 15 kts | 264° |
| 2026-05-04 23:09 | -25.73240 | -54.48099 | 930 ft | 15 kts | 264° |
| 2026-05-04 23:09 | -25.73249 | -54.48211 | 927 ft | 14 kts | 264° |
| 2026-05-04 23:10 | -25.73258 | -54.48318 | 928 ft | 14 kts | 263° |
| 2026-05-04 23:10 | -25.73263 | -54.48424 | 927 ft | 17 kts | 275° |
| 2026-05-04 23:10 | -25.73210 | -54.48585 | 928 ft | 24 kts | 294° |
| 2026-05-04 23:10 | -25.73147 | -54.48722 | 929 ft | 15 kts | 309° |
| 2026-05-04 23:11 | -25.73102 | -54.48802 | 927 ft | 10 kts | 228° |
| 2026-05-04 23:11 | -25.73129 | -54.48777 | 925 ft | 6 kts | 118° |
| 2026-05-04 23:11 | -25.73137 | -54.48759 | 926 ft | 0 kts | 115° |
| 2026-05-04 23:12 | -25.73189 | -54.48635 | 928 ft | 50 kts | 115° |
| 2026-05-04 23:12 | -25.73432 | -54.48049 | 931 ft | 115 kts | 115° |
| 2026-05-04 23:12 | -25.73854 | -54.47049 | 930 ft | 169 kts | 115° |
| 2026-05-04 23:12 | -25.74398 | -54.45798 | 1301 ft | 185 kts | 115° |
| 2026-05-04 23:13 | -25.74964 | -54.44494 | 2019 ft | 191 kts | 112° |
| 2026-05-04 23:13 | -25.75551 | -54.43117 | 2673 ft | 203 kts | 111° |
| 2026-05-04 23:13 | -25.76160 | -54.41690 | 3301 ft | 208 kts | 112° |
| 2026-05-04 23:13 | -25.76811 | -54.40213 | 3885 ft | 218 kts | 117° |
| 2026-05-04 23:14 | -25.77849 | -54.38949 | 4374 ft | 230 kts | 149° |
| 2026-05-04 23:14 | -25.79427 | -54.38466 | 4756 ft | 241 kts | 178° |
| 2026-05-04 23:14 | -25.81120 | -54.38434 | 5287 ft | 246 kts | 182° |
| 2026-05-04 23:14 | -25.82836 | -54.38415 | 5932 ft | 247 kts | 180° |
| 2026-05-04 23:15 | -25.84593 | -54.38349 | 6312 ft | 260 kts | 179° |
| 2026-05-04 23:15 | -25.86487 | -54.38231 | 6524 ft | 285 kts | 178° |
| 2026-05-04 23:15 | -25.88514 | -54.38076 | 7047 ft | 295 kts | 177° |
| 2026-05-04 23:15 | -25.90545 | -54.37913 | 7744 ft | 298 kts | 178° |
| 2026-05-04 23:16 | -25.92622 | -54.37744 | 8508 ft | 300 kts | 178° |
| 2026-05-04 23:16 | -25.94710 | -54.37573 | 9261 ft | 302 kts | 178° |
| 2026-05-04 23:16 | -25.96818 | -54.37402 | 9999 ft | 305 kts | 178° |
| 2026-05-04 23:16 | -25.98958 | -54.37230 | 10476 ft | 317 kts | 178° |
| 2026-05-04 23:17 | -26.01245 | -54.37049 | 10630 ft | 339 kts | 178° |
| 2026-05-04 23:17 | -26.03671 | -54.36857 | 10790 ft | 360 kts | 178° |
| 2026-05-04 23:17 | -26.06229 | -54.36653 | 10991 ft | 375 kts | 178° |
| 2026-05-04 23:17 | -26.08858 | -54.36440 | 11467 ft | 380 kts | 178° |
| 2026-05-04 23:18 | -26.11500 | -54.36224 | 12131 ft | 380 kts | 178° |
| 2026-05-04 23:18 | -26.14132 | -54.36009 | 12812 ft | 379 kts | 178° |
| 2026-05-04 23:18 | -26.16770 | -54.35794 | 13454 ft | 380 kts | 178° |
| 2026-05-04 23:18 | -26.19406 | -54.35581 | 14050 ft | 382 kts | 178° |
| 2026-05-04 23:19 | -26.22073 | -54.35368 | 14591 ft | 384 kts | 178° |
| 2026-05-04 23:19 | -26.24748 | -54.35225 | 15082 ft | 386 kts | 185° |
| 2026-05-04 23:19 | -26.27348 | -54.35853 | 15584 ft | 384 kts | 201° |
| 2026-05-04 23:19 | -26.29875 | -54.36856 | 16119 ft | 386 kts | 201° |
| 2026-05-04 23:20 | -26.32425 | -54.37841 | 16624 ft | 389 kts | 201° |
| 2026-05-04 23:20 | -26.34967 | -54.38805 | 17139 ft | 392 kts | 201° |
| 2026-05-04 23:20 | -26.37570 | -54.39780 | 17648 ft | 395 kts | 201° |
| 2026-05-04 23:20 | -26.40182 | -54.40754 | 18154 ft | 398 kts | 201° |
| 2026-05-04 23:21 | -26.42814 | -54.41732 | 18614 ft | 400 kts | 201° |
| 2026-05-04 23:21 | -26.45465 | -54.42716 | 19074 ft | 402 kts | 201° |
| 2026-05-04 23:21 | -26.48122 | -54.43702 | 19553 ft | 403 kts | 201° |
| 2026-05-04 23:21 | -26.50792 | -54.44694 | 20017 ft | 405 kts | 201° |
| 2026-05-04 23:22 | -26.53469 | -54.45689 | 20481 ft | 406 kts | 201° |
| 2026-05-04 23:22 | -26.56146 | -54.46685 | 21001 ft | 406 kts | 201° |
| 2026-05-04 23:22 | -26.58833 | -54.47685 | 21443 ft | 408 kts | 201° |
| 2026-05-04 23:22 | -26.61501 | -54.48678 | 21847 ft | 411 kts | 200° |
| 2026-05-04 23:23 | -26.64218 | -54.49690 | 22256 ft | 413 kts | 200° |
| 2026-05-04 23:23 | -26.66950 | -54.50709 | 22656 ft | 416 kts | 200° |
| 2026-05-04 23:23 | -26.69700 | -54.51741 | 23069 ft | 417 kts | 201° |
| 2026-05-04 23:23 | -26.72319 | -54.53117 | 23455 ft | 417 kts | 213° |
| 2026-05-04 23:24 | -26.74760 | -54.54889 | 23829 ft | 419 kts | 215° |
| 2026-05-04 23:24 | -26.77184 | -54.56721 | 24154 ft | 420 kts | 215° |
| 2026-05-04 23:24 | -26.79617 | -54.58565 | 24481 ft | 422 kts | 215° |
| 2026-05-04 23:24 | -26.82065 | -54.60403 | 24823 ft | 424 kts | 215° |
| 2026-05-04 23:25 | -26.84525 | -54.62230 | 25152 ft | 425 kts | 215° |
| 2026-05-04 23:25 | -26.87004 | -54.64055 | 25472 ft | 427 kts | 215° |
| 2026-05-04 23:25 | -26.89495 | -54.65882 | 25776 ft | 429 kts | 215° |
| 2026-05-04 23:25 | -26.91997 | -54.67711 | 26074 ft | 431 kts | 215° |
| 2026-05-04 23:26 | -26.94487 | -54.69530 | 26368 ft | 432 kts | 215° |
| 2026-05-04 23:26 | -26.97012 | -54.71375 | 26661 ft | 434 kts | 215° |
| 2026-05-04 23:26 | -26.99548 | -54.73230 | 26950 ft | 436 kts | 215° |
| 2026-05-04 23:26 | -27.02098 | -54.75095 | 27235 ft | 437 kts | 215° |
| 2026-05-04 23:27 | -27.04649 | -54.76965 | 27494 ft | 439 kts | 215° |
| 2026-05-04 23:27 | -27.07211 | -54.78843 | 27771 ft | 441 kts | 215° |
| 2026-05-04 23:27 | -27.09782 | -54.80728 | 28042 ft | 442 kts | 216° |
| 2026-05-04 23:27 | -27.12357 | -54.82617 | 28322 ft | 443 kts | 216° |
| 2026-05-04 23:28 | -27.14950 | -54.84521 | 28581 ft | 445 kts | 216° |
| 2026-05-04 23:28 | -27.17543 | -54.86425 | 28876 ft | 445 kts | 216° |
| 2026-05-04 23:28 | -27.20129 | -54.88325 | 29310 ft | 443 kts | 216° |
| 2026-05-04 23:28 | -27.22667 | -54.90189 | 29781 ft | 440 kts | 216° |
| 2026-05-04 23:29 | -27.25222 | -54.92068 | 30188 ft | 439 kts | 216° |
| 2026-05-04 23:29 | -27.27776 | -54.93947 | 30520 ft | 438 kts | 216° |
| 2026-05-04 23:29 | -27.30318 | -54.95819 | 30914 ft | 435 kts | 216° |
| 2026-05-04 23:29 | -27.32809 | -54.97717 | 31375 ft | 429 kts | 221° |
| 2026-05-04 23:30 | -27.34868 | -55.00093 | 31787 ft | 421 kts | 236° |
| 2026-05-04 23:30 | -27.36359 | -55.02908 | 32264 ft | 416 kts | 243° |
| 2026-05-04 23:30 | -27.37650 | -55.05798 | 32772 ft | 411 kts | 244° |
| 2026-05-04 23:30 | -27.38889 | -55.08635 | 33177 ft | 408 kts | 244° |
| 2026-05-04 23:31 | -27.40139 | -55.11492 | 33523 ft | 407 kts | 244° |
| 2026-05-04 23:31 | -27.41397 | -55.14342 | 33863 ft | 405 kts | 244° |
| 2026-05-04 23:31 | -27.42659 | -55.17174 | 34198 ft | 403 kts | 244° |
| 2026-05-04 23:31 | -27.43917 | -55.19981 | 34545 ft | 400 kts | 243° |
| 2026-05-04 23:32 | -27.45174 | -55.22775 | 34842 ft | 398 kts | 243° |
| 2026-05-04 23:32 | -27.46423 | -55.25549 | 35117 ft | 397 kts | 243° |
| 2026-05-04 23:32 | -27.47672 | -55.28323 | 35357 ft | 396 kts | 243° |
| 2026-05-04 23:32 | -27.48897 | -55.31043 | 35652 ft | 394 kts | 243° |
| 2026-05-04 23:33 | -27.50131 | -55.33789 | 35948 ft | 392 kts | 243° |
| 2026-05-04 23:33 | -27.51365 | -55.36535 | 35985 ft | 395 kts | 243° |
| 2026-05-04 23:33 | -27.53845 | -55.42059 | 35994 ft | 393 kts | 243° |
| 2026-05-04 23:34 | -27.56300 | -55.47533 | 35994 ft | 391 kts | 243° |
| 2026-05-04 23:34 | -27.58744 | -55.52991 | 35994 ft | 389 kts | 244° |
| 2026-05-04 23:35 | -27.61414 | -55.58262 | 35986 ft | 389 kts | 232° |
| 2026-05-04 23:35 | -27.63363 | -55.60392 | 35985 ft | 393 kts | 220° |
| 2026-05-04 23:35 | -27.65611 | -55.62158 | 36007 ft | 394 kts | 218° |
| 2026-05-04 23:36 | -27.70210 | -55.65554 | 35997 ft | 396 kts | 218° |
| 2026-05-04 23:36 | -27.74827 | -55.68954 | 35988 ft | 396 kts | 218° |
| 2026-05-04 23:37 | -27.79429 | -55.72385 | 35993 ft | 397 kts | 218° |
| 2026-05-04 23:37 | -27.84040 | -55.75848 | 35994 ft | 398 kts | 218° |
| 2026-05-04 23:38 | -27.88658 | -55.79328 | 35986 ft | 400 kts | 218° |
| 2026-05-04 23:38 | -27.93291 | -55.82822 | 35989 ft | 401 kts | 218° |
| 2026-05-04 23:39 | -27.97938 | -55.86330 | 35990 ft | 402 kts | 218° |
| 2026-05-04 23:39 | -28.02563 | -55.89826 | 35979 ft | 402 kts | 218° |
| 2026-05-04 23:40 | -28.07212 | -55.93343 | 35983 ft | 402 kts | 218° |
| 2026-05-04 23:40 | -28.11863 | -55.96865 | 35986 ft | 402 kts | 218° |
| 2026-05-04 23:41 | -28.16510 | -56.00389 | 35978 ft | 401 kts | 218° |
| 2026-05-04 23:41 | -28.21119 | -56.03886 | 36007 ft | 401 kts | 218° |
| 2026-05-04 23:42 | -28.25761 | -56.07413 | 35995 ft | 401 kts | 218° |
| 2026-05-04 23:42 | -28.30400 | -56.10942 | 35975 ft | 401 kts | 218° |
| 2026-05-04 23:43 | -28.35030 | -56.14467 | 35975 ft | 400 kts | 218° |
| 2026-05-04 23:43 | -28.39622 | -56.17967 | 35988 ft | 400 kts | 218° |
| 2026-05-04 23:44 | -28.44245 | -56.21494 | 35975 ft | 400 kts | 219° |
| 2026-05-04 23:44 | -28.48858 | -56.25018 | 35988 ft | 400 kts | 219° |
| 2026-05-04 23:45 | -28.53476 | -56.28549 | 35997 ft | 400 kts | 219° |
| 2026-05-04 23:45 | -28.58095 | -56.32085 | 35988 ft | 400 kts | 219° |
| 2026-05-04 23:46 | -28.62712 | -56.35622 | 35984 ft | 400 kts | 219° |
| 2026-05-04 23:46 | -28.67332 | -56.39166 | 35981 ft | 400 kts | 219° |
| 2026-05-04 23:47 | -28.71920 | -56.42689 | 35979 ft | 400 kts | 219° |
| 2026-05-04 23:47 | -28.76541 | -56.46240 | 35973 ft | 400 kts | 219° |
| 2026-05-04 23:48 | -28.81163 | -56.49795 | 35976 ft | 400 kts | 219° |
| 2026-05-04 23:48 | -28.85786 | -56.53356 | 35986 ft | 401 kts | 219° |
| 2026-05-04 23:49 | -28.90380 | -56.56903 | 35978 ft | 401 kts | 219° |
| 2026-05-04 23:49 | -28.95001 | -56.60475 | 35976 ft | 401 kts | 219° |
| 2026-05-04 23:50 | -28.99621 | -56.64049 | 35972 ft | 401 kts | 219° |
| 2026-05-04 23:50 | -29.04253 | -56.67634 | 35978 ft | 401 kts | 219° |
| 2026-05-04 23:51 | -29.08877 | -56.71217 | 35975 ft | 401 kts | 219° |
| 2026-05-04 23:51 | -29.13494 | -56.74798 | 35976 ft | 401 kts | 219° |
| 2026-05-04 23:52 | -29.17336 | -56.77780 | 35986 ft | 401 kts | 219° |
| 2026-05-04 23:52 | -29.21954 | -56.81370 | 35980 ft | 401 kts | 219° |
| 2026-05-04 23:53 | -29.26575 | -56.84965 | 35975 ft | 401 kts | 219° |
| 2026-05-04 23:53 | -29.31168 | -56.88542 | 35975 ft | 401 kts | 219° |
| 2026-05-04 23:54 | -29.35785 | -56.92143 | 35976 ft | 402 kts | 219° |
| 2026-05-04 23:54 | -29.40407 | -56.95751 | 35975 ft | 402 kts | 219° |
| 2026-05-04 23:55 | -29.45024 | -56.99359 | 35979 ft | 401 kts | 219° |
| 2026-05-04 23:56 | -29.51955 | -57.04783 | 35977 ft | 401 kts | 219° |
| 2026-05-04 23:56 | -29.56570 | -57.08400 | 35969 ft | 402 kts | 219° |
| 2026-05-04 23:57 | -29.61155 | -57.11998 | 35970 ft | 402 kts | 219° |
| 2026-05-04 23:57 | -29.65780 | -57.15631 | 35968 ft | 402 kts | 219° |
| 2026-05-04 23:58 | -29.70398 | -57.19262 | 35974 ft | 402 kts | 219° |
| 2026-05-04 23:58 | -29.75014 | -57.22896 | 35974 ft | 402 kts | 219° |
| 2026-05-04 23:59 | -29.79635 | -57.26538 | 35984 ft | 403 kts | 219° |
| 2026-05-04 23:59 | -29.84261 | -57.30188 | 35975 ft | 403 kts | 219° |
| 2026-05-05 00:00 | -29.88853 | -57.33815 | 35975 ft | 403 kts | 219° |
| 2026-05-05 00:00 | -29.93481 | -57.37475 | 35979 ft | 403 kts | 219° |
| 2026-05-05 00:01 | -29.98108 | -57.41138 | 35973 ft | 403 kts | 220° |
| 2026-05-05 00:01 | -30.02733 | -57.44803 | 35974 ft | 403 kts | 220° |
| 2026-05-05 00:02 | -30.07357 | -57.48473 | 36000 ft | 403 kts | 220° |
| 2026-05-05 00:02 | -30.11986 | -57.52150 | 35984 ft | 404 kts | 220° |
| 2026-05-05 00:03 | -30.16617 | -57.55831 | 35972 ft | 404 kts | 220° |
| 2026-05-05 00:03 | -30.21247 | -57.59516 | 35969 ft | 404 kts | 220° |
| 2026-05-05 00:04 | -30.25935 | -57.63111 | 35957 ft | 407 kts | 214° |
| 2026-05-05 00:04 | -30.31232 | -57.65516 | 35984 ft | 416 kts | 204° |
| 2026-05-05 00:05 | -30.36778 | -57.67439 | 35989 ft | 416 kts | 204° |
| 2026-05-05 00:05 | -30.42337 | -57.69361 | 35968 ft | 416 kts | 204° |
| 2026-05-05 00:06 | -30.47897 | -57.71284 | 35972 ft | 416 kts | 204° |
| 2026-05-05 00:06 | -30.53409 | -57.73193 | 35966 ft | 416 kts | 204° |
| 2026-05-05 00:07 | -30.58964 | -57.75119 | 35975 ft | 416 kts | 204° |
| 2026-05-05 00:07 | -30.64518 | -57.77048 | 35992 ft | 416 kts | 204° |
| 2026-05-05 00:08 | -30.70070 | -57.78980 | 35979 ft | 416 kts | 204° |
| 2026-05-05 00:08 | -30.75591 | -57.80902 | 35971 ft | 416 kts | 204° |
| 2026-05-05 00:09 | -30.81143 | -57.82837 | 35965 ft | 416 kts | 204° |
| 2026-05-05 00:09 | -30.86688 | -57.84772 | 35969 ft | 416 kts | 204° |
| 2026-05-05 00:10 | -30.92236 | -57.86711 | 35984 ft | 416 kts | 204° |
| 2026-05-05 00:10 | -30.97785 | -57.88652 | 35970 ft | 416 kts | 204° |
| 2026-05-05 00:11 | -31.03341 | -57.90598 | 35964 ft | 416 kts | 204° |
| 2026-05-05 00:11 | -31.08892 | -57.92545 | 35969 ft | 417 kts | 204° |
| 2026-05-05 00:12 | -31.14417 | -57.94485 | 35970 ft | 417 kts | 204° |
| 2026-05-05 00:12 | -31.19978 | -57.96440 | 35974 ft | 418 kts | 204° |
| 2026-05-05 00:13 | -31.25541 | -57.98398 | 35965 ft | 418 kts | 204° |
| 2026-05-05 00:13 | -31.31122 | -58.00365 | 35966 ft | 418 kts | 204° |
| 2026-05-05 00:14 | -31.36665 | -58.02321 | 35967 ft | 418 kts | 204° |
| 2026-05-05 00:14 | -31.42239 | -58.04290 | 35994 ft | 418 kts | 204° |
| 2026-05-05 00:15 | -31.47826 | -58.06267 | 35975 ft | 419 kts | 204° |
| 2026-05-05 00:15 | -31.53406 | -58.08243 | 35967 ft | 419 kts | 204° |
| 2026-05-05 00:16 | -31.58983 | -58.10220 | 35971 ft | 418 kts | 204° |
| 2026-05-05 00:16 | -31.64548 | -58.12195 | 35963 ft | 418 kts | 204° |
| 2026-05-05 00:17 | -31.70111 | -58.14173 | 35980 ft | 418 kts | 204° |
| 2026-05-05 00:17 | -31.75638 | -58.16141 | 35961 ft | 418 kts | 204° |
| 2026-05-05 00:18 | -31.81210 | -58.18127 | 35960 ft | 417 kts | 204° |
| 2026-05-05 00:18 | -31.86771 | -58.20111 | 35962 ft | 417 kts | 204° |
| 2026-05-05 00:19 | -31.92320 | -58.22094 | 35964 ft | 417 kts | 204° |
| 2026-05-05 00:19 | -31.97884 | -58.24084 | 35962 ft | 418 kts | 204° |
| 2026-05-05 00:20 | -32.03446 | -58.26077 | 35952 ft | 418 kts | 204° |
| 2026-05-05 00:20 | -32.08971 | -58.28058 | 35956 ft | 418 kts | 204° |
| 2026-05-05 00:21 | -32.14537 | -58.30057 | 35948 ft | 418 kts | 204° |
| 2026-05-05 00:21 | -32.20103 | -58.32058 | 35946 ft | 418 kts | 204° |
| 2026-05-05 00:22 | -32.25667 | -58.34061 | 35944 ft | 418 kts | 204° |
| 2026-05-05 00:22 | -32.31229 | -58.36066 | 35948 ft | 418 kts | 204° |
| 2026-05-05 00:23 | -32.36796 | -58.38075 | 35945 ft | 418 kts | 204° |
| 2026-05-05 00:23 | -32.42266 | -58.40052 | 35943 ft | 418 kts | 204° |
| 2026-05-05 00:24 | -32.47802 | -58.42056 | 35956 ft | 418 kts | 204° |
| 2026-05-05 00:24 | -32.50608 | -58.43075 | 35495 ft | 425 kts | 204° |
| 2026-05-05 00:24 | -32.53433 | -58.44100 | 34926 ft | 424 kts | 204° |
| 2026-05-05 00:24 | -32.56261 | -58.45125 | 34296 ft | 424 kts | 204° |
| 2026-05-05 00:25 | -32.59082 | -58.46148 | 33599 ft | 425 kts | 204° |
| 2026-05-05 00:25 | -32.61906 | -58.47172 | 33050 ft | 422 kts | 204° |
| 2026-05-05 00:25 | -32.64702 | -58.48185 | 32539 ft | 418 kts | 204° |
| 2026-05-05 00:25 | -32.67481 | -58.49193 | 32055 ft | 415 kts | 204° |
| 2026-05-05 00:26 | -32.70230 | -58.50191 | 31581 ft | 411 kts | 204° |
| 2026-05-05 00:26 | -32.72920 | -58.51170 | 31141 ft | 408 kts | 204° |
| 2026-05-05 00:26 | -32.75625 | -58.52156 | 30669 ft | 405 kts | 204° |
| 2026-05-05 00:26 | -32.78312 | -58.53136 | 30203 ft | 402 kts | 204° |
| 2026-05-05 00:27 | -32.80984 | -58.54111 | 29676 ft | 400 kts | 204° |
| 2026-05-05 00:27 | -32.83636 | -58.55079 | 29163 ft | 397 kts | 204° |
| 2026-05-05 00:27 | -32.86269 | -58.56040 | 28674 ft | 393 kts | 204° |
| 2026-05-05 00:27 | -32.88877 | -58.56992 | 28202 ft | 390 kts | 204° |
| 2026-05-05 00:28 | -32.91426 | -58.57923 | 27736 ft | 386 kts | 204° |
| 2026-05-05 00:28 | -32.93989 | -58.58861 | 27278 ft | 383 kts | 204° |
| 2026-05-05 00:28 | -32.96531 | -58.59791 | 26825 ft | 380 kts | 204° |
| 2026-05-05 00:28 | -32.99047 | -58.60714 | 26389 ft | 377 kts | 204° |
| 2026-05-05 00:29 | -33.01592 | -58.61515 | 25926 ft | 380 kts | 197° |
| 2026-05-05 00:29 | -33.04236 | -58.61898 | 25481 ft | 382 kts | 193° |
| 2026-05-05 00:29 | -33.06881 | -58.62195 | 25033 ft | 381 kts | 192° |
| 2026-05-05 00:29 | -33.09517 | -58.62476 | 24584 ft | 380 kts | 192° |
| 2026-05-05 00:30 | -33.12140 | -58.62758 | 24151 ft | 378 kts | 192° |
| 2026-05-05 00:30 | -33.14760 | -58.63045 | 23685 ft | 377 kts | 192° |
| 2026-05-05 00:30 | -33.17372 | -58.63339 | 23192 ft | 376 kts | 193° |
| 2026-05-05 00:30 | -33.19971 | -58.63634 | 22716 ft | 374 kts | 193° |
| 2026-05-05 00:31 | -33.22547 | -58.63929 | 22285 ft | 371 kts | 193° |
| 2026-05-05 00:31 | -33.25074 | -58.64221 | 21841 ft | 368 kts | 193° |
| 2026-05-05 00:31 | -33.27617 | -58.64515 | 21397 ft | 366 kts | 193° |
| 2026-05-05 00:31 | -33.30142 | -58.64809 | 20961 ft | 363 kts | 193° |
| 2026-05-05 00:32 | -33.32650 | -58.65100 | 20533 ft | 361 kts | 193° |
| 2026-05-05 00:32 | -33.35147 | -58.65391 | 20112 ft | 359 kts | 193° |
| 2026-05-05 00:32 | -33.37625 | -58.65679 | 19687 ft | 357 kts | 193° |
| 2026-05-05 00:32 | -33.40090 | -58.65967 | 19269 ft | 355 kts | 193° |
| 2026-05-05 00:33 | -33.42545 | -58.66254 | 18840 ft | 354 kts | 192° |
| 2026-05-05 00:33 | -33.44988 | -58.66539 | 18424 ft | 352 kts | 192° |
| 2026-05-05 00:33 | -33.47423 | -58.66824 | 17957 ft | 351 kts | 192° |
| 2026-05-05 00:33 | -33.49852 | -58.67108 | 17510 ft | 349 kts | 192° |
| 2026-05-05 00:34 | -33.52255 | -58.67388 | 17090 ft | 346 kts | 192° |
| 2026-05-05 00:34 | -33.54642 | -58.67666 | 16670 ft | 343 kts | 192° |
| 2026-05-05 00:34 | -33.57006 | -58.67942 | 16264 ft | 340 kts | 192° |
| 2026-05-05 00:34 | -33.59353 | -58.68217 | 15865 ft | 337 kts | 191° |
| 2026-05-05 00:35 | -33.61647 | -58.68485 | 15473 ft | 335 kts | 191° |
| 2026-05-05 00:35 | -33.63958 | -58.68756 | 15083 ft | 332 kts | 191° |
| 2026-05-05 00:35 | -33.66254 | -58.69025 | 14698 ft | 330 kts | 191° |
| 2026-05-05 00:35 | -33.68533 | -58.69292 | 14324 ft | 327 kts | 191° |
| 2026-05-05 00:36 | -33.70790 | -58.69557 | 13934 ft | 325 kts | 191° |
| 2026-05-05 00:36 | -33.73037 | -58.69821 | 13514 ft | 323 kts | 191° |
| 2026-05-05 00:36 | -33.75267 | -58.70083 | 13100 ft | 321 kts | 191° |
| 2026-05-05 00:36 | -33.77481 | -58.70342 | 12700 ft | 319 kts | 191° |
| 2026-05-05 00:37 | -33.79682 | -58.70600 | 12318 ft | 316 kts | 190° |
| 2026-05-05 00:37 | -33.81867 | -58.70856 | 11934 ft | 314 kts | 190° |
| 2026-05-05 00:37 | -33.84032 | -58.71110 | 11562 ft | 311 kts | 190° |
| 2026-05-05 00:37 | -33.86182 | -58.71362 | 11184 ft | 310 kts | 190° |
| 2026-05-05 00:38 | -33.88285 | -58.71610 | 10818 ft | 308 kts | 190° |
| 2026-05-05 00:38 | -33.90415 | -58.71861 | 10526 ft | 304 kts | 190° |
| 2026-05-05 00:38 | -33.92484 | -58.72102 | 10403 ft | 294 kts | 190° |
| 2026-05-05 00:38 | -33.94493 | -58.72315 | 10269 ft | 286 kts | 190° |
| 2026-05-05 00:39 | -33.96447 | -58.72514 | 10146 ft | 277 kts | 190° |
| 2026-05-05 00:39 | -33.98341 | -58.72705 | 10029 ft | 269 kts | 190° |
| 2026-05-05 00:39 | -34.00179 | -58.72892 | 9908 ft | 261 kts | 190° |
| 2026-05-05 00:39 | -34.01987 | -58.73078 | 9622 ft | 260 kts | 190° |
| 2026-05-05 00:40 | -34.03783 | -58.73264 | 9368 ft | 258 kts | 190° |
| 2026-05-05 00:40 | -34.05564 | -58.73448 | 9108 ft | 256 kts | 190° |
| 2026-05-05 00:40 | -34.07315 | -58.73629 | 8846 ft | 255 kts | 190° |
| 2026-05-05 00:40 | -34.09098 | -58.73814 | 8580 ft | 255 kts | 189° |
| 2026-05-05 00:41 | -34.10868 | -58.73998 | 8325 ft | 261 kts | 189° |
| 2026-05-05 00:41 | -34.12706 | -58.74190 | 8055 ft | 268 kts | 189° |
| 2026-05-05 00:41 | -34.14589 | -58.74386 | 7778 ft | 273 kts | 189° |
| 2026-05-05 00:41 | -34.15843 | -58.74515 | 7578 ft | 273 kts | 189° |
| 2026-05-05 00:42 | -34.17736 | -58.74709 | 7274 ft | 273 kts | 188° |
| 2026-05-05 00:42 | -34.19627 | -58.74904 | 6986 ft | 272 kts | 188° |
| 2026-05-05 00:42 | -34.21512 | -58.75097 | 6693 ft | 272 kts | 188° |
| 2026-05-05 00:42 | -34.23401 | -58.75292 | 6384 ft | 272 kts | 187° |
| 2026-05-05 00:43 | -34.25292 | -58.75487 | 6078 ft | 273 kts | 187° |
| 2026-05-05 00:43 | -34.27182 | -58.75682 | 5790 ft | 272 kts | 187° |
| 2026-05-05 00:43 | -34.29069 | -58.75878 | 5487 ft | 272 kts | 188° |
| 2026-05-05 00:43 | -34.30952 | -58.76058 | 5213 ft | 271 kts | 183° |
| 2026-05-05 00:44 | -34.32781 | -58.75546 | 4914 ft | 275 kts | 152° |
| 2026-05-05 00:44 | -34.34262 | -58.74097 | 4681 ft | 274 kts | 136° |
| 2026-05-05 00:44 | -34.35589 | -58.72446 | 4395 ft | 273 kts | 134° |
| 2026-05-05 00:44 | -34.36900 | -58.70779 | 4117 ft | 273 kts | 134° |
| 2026-05-05 00:45 | -34.38205 | -58.69123 | 3842 ft | 272 kts | 134° |
| 2026-05-05 00:45 | -34.39503 | -58.67484 | 3677 ft | 266 kts | 134° |
| 2026-05-05 00:45 | -34.40757 | -58.65909 | 3544 ft | 259 kts | 134° |
| 2026-05-05 00:45 | -34.41997 | -58.64360 | 3431 ft | 252 kts | 134° |
| 2026-05-05 00:46 | -34.43205 | -58.62853 | 3326 ft | 245 kts | 134° |
| 2026-05-05 00:46 | -34.44375 | -58.61395 | 3229 ft | 237 kts | 135° |
| 2026-05-05 00:46 | -34.45503 | -58.59989 | 3086 ft | 228 kts | 134° |
| 2026-05-05 00:46 | -34.46500 | -58.58567 | 3000 ft | 214 kts | 124° |
| 2026-05-05 00:47 | -34.47319 | -58.57102 | 2820 ft | 210 kts | 123° |
| 2026-05-05 00:47 | -34.48127 | -58.55650 | 2553 ft | 204 kts | 123° |
| 2026-05-05 00:47 | -34.48899 | -58.54259 | 2303 ft | 192 kts | 122° |
| 2026-05-05 00:47 | -34.49622 | -58.52953 | 2043 ft | 180 kts | 121° |
| 2026-05-05 00:48 | -34.50292 | -58.51745 | 1835 ft | 165 kts | 121° |
| 2026-05-05 00:48 | -34.50910 | -58.50628 | 1641 ft | 155 kts | 121° |
| 2026-05-05 00:48 | -34.51517 | -58.49530 | 1402 ft | 156 kts | 121° |
| 2026-05-05 00:48 | -34.52113 | -58.48456 | 1189 ft | 151 kts | 121° |
| 2026-05-05 00:49 | -34.52697 | -58.47403 | 991 ft | 150 kts | 121° |
| 2026-05-05 00:49 | -34.53277 | -58.46358 | 794 ft | 148 kts | 122° |
| 2026-05-05 00:49 | -34.53852 | -58.45321 | 611 ft | 148 kts | 122° |
| 2026-05-05 00:49 | -34.54420 | -58.44299 | 433 ft | 147 kts | 123° |
| 2026-05-05 00:50 | -34.54989 | -58.43268 | 223 ft | 148 kts | 123° |
| 2026-05-05 00:50 | -34.55559 | -58.42241 | 50 ft | 146 kts | 123° |
| 2026-05-05 00:50 | -34.56076 | -58.41304 | 25 ft | 112 kts | 124° |
| 2026-05-05 00:50 | -34.56348 | -58.40819 | 26 ft | 40 kts | 124° |
| 2026-05-05 00:51 | -34.56379 | -58.40667 | 26 ft | 13 kts | 18° |
| 2026-05-05 00:51 | -34.56306 | -58.40717 | 27 ft | 12 kts | 319° |
| 2026-05-05 00:51 | -34.56293 | -58.40731 | 26 ft | 6 kts | 318° |
| 2026-05-05 00:52 | -34.56277 | -58.40749 | 24 ft | 6 kts | 318° |
| 2026-05-05 00:52 | -34.56244 | -58.40785 | 28 ft | 6 kts | 317° |
| 2026-05-05 00:53 | -34.56212 | -58.40818 | 30 ft | 6 kts | 319° |
| 2026-05-05 00:53 | -34.56177 | -58.40873 | 25 ft | 11 kts | 300° |
| 2026-05-05 00:53 | -34.56136 | -58.40959 | 24 ft | 13 kts | 303° |
| 2026-05-05 00:53 | -34.56085 | -58.41045 | 27 ft | 12 kts | 307° |
| 2026-05-05 00:54 | -34.56034 | -58.41127 | 27 ft | 12 kts | 306° |
| 2026-05-05 00:54 | -34.55984 | -58.41207 | 26 ft | 12 kts | 307° |
| 2026-05-05 00:54 | -34.55939 | -58.41279 | 25 ft | 6 kts | 306° |
| 2026-05-05 00:54 | -34.55908 | -58.41304 | 27 ft | 6 kts | 355° |
| 2026-05-05 00:55 | -34.55872 | -58.41287 | 24 ft | 6 kts | 21° |
| 2026-05-05 00:55 | -34.55835 | -58.41293 | 26 ft | 6 kts | 322° |
| 2026-05-05 00:55 | -34.55812 | -58.41330 | 27 ft | 5 kts | 304° |
| 2026-05-05 00:55 | -34.55791 | -58.41367 | 25 ft | 5 kts | 304° |
| 2026-05-05 00:56 | -34.55770 | -58.41404 | 26 ft | 5 kts | 302° |
| 2026-05-05 00:56 | -34.55780 | -58.41431 | 27 ft | 5 kts | 211° |
| 2026-05-05 00:56 | -34.55802 | -58.41445 | 25 ft | 0 kts | 207° |